createdAt,value
2018-10-18T00:01:06.253Z,13.12
2018-10-18T00:03:34.967Z,13.13
2018-10-18T00:06:03.441Z,13.16
2018-10-18T00:08:31.894Z,13.18
2018-10-18T00:11:00.348Z,13.18
2018-10-18T00:13:28.675Z,13.15
2018-10-18T00:15:57.918Z,13.13
2018-10-18T00:18:26.976Z,13.10
2018-10-18T00:20:56.419Z,13.12
2018-10-18T00:23:26.001Z,13.16
2018-10-18T00:25:54.387Z,13.07
2018-10-18T00:28:22.803Z,12.97
2018-10-18T00:30:51.290Z,12.91
2018-10-18T00:33:20.057Z,12.92
2018-10-18T00:35:48.945Z,12.89
2018-10-18T00:38:20.235Z,12.82
2018-10-18T00:40:49.206Z,12.76
2018-10-18T00:43:19.006Z,12.72
2018-10-18T00:45:47.702Z,12.67
2018-10-18T00:48:16.842Z,12.68
2018-10-18T00:50:45.917Z,12.72
2018-10-18T00:53:14.990Z,12.74
2018-10-18T00:55:43.471Z,12.75
2018-10-18T00:58:12.209Z,12.83
2018-10-18T01:00:41.103Z,12.78
2018-10-18T01:03:10.620Z,12.78
2018-10-18T01:05:39.045Z,12.82
2018-10-18T01:08:08.093Z,12.85
2018-10-18T01:10:38.202Z,12.84
2018-10-18T01:13:07.601Z,12.78
2018-10-18T01:15:36.128Z,12.78
2018-10-18T01:18:05.100Z,12.75
2018-10-18T01:20:33.570Z,12.81
2018-10-18T01:23:02.083Z,12.74
2018-10-18T01:25:31.193Z,12.71
2018-10-18T01:27:59.785Z,12.66
2018-10-18T01:30:28.654Z,12.54
2018-10-18T01:32:57.156Z,12.42
2018-10-18T01:35:25.552Z,12.32
2018-10-18T01:37:53.935Z,12.28
2018-10-18T01:40:24.196Z,12.26
2018-10-18T01:42:53.336Z,12.19
2018-10-18T01:45:22.141Z,12.21
2018-10-18T01:47:50.864Z,12.26
2018-10-18T01:50:20.848Z,12.28
2018-10-18T01:52:50.228Z,12.26
2018-10-18T01:55:19.454Z,12.25
2018-10-18T01:57:48.408Z,12.17
2018-10-18T02:00:17.433Z,12.14
2018-10-18T02:02:46.491Z,12.07
2018-10-18T02:05:15.173Z,12.11
2018-10-18T02:07:43.559Z,12.09
2018-10-18T02:10:12.037Z,12.11
2018-10-18T02:12:40.543Z,12.16
2018-10-18T02:15:10.157Z,12.15
2018-10-18T02:17:39.243Z,12.09
2018-10-18T02:20:08.754Z,12.03
2018-10-18T02:22:37.536Z,12.03
2018-10-18T02:25:07.626Z,12.02
2018-10-18T02:27:35.952Z,12.02
2018-10-18T02:30:05.372Z,12.14
2018-10-18T02:32:33.705Z,12.15
2018-10-18T02:35:02.688Z,12.21
2018-10-18T02:37:31.119Z,12.17
2018-10-18T02:39:59.817Z,12.06
2018-10-18T02:42:29.188Z,12.00
2018-10-18T02:44:57.588Z,11.95
2018-10-18T02:47:26.051Z,11.95
2018-10-18T02:49:54.741Z,11.92
2018-10-18T02:52:23.300Z,11.97
2018-10-18T02:54:52.355Z,11.98
2018-10-18T02:57:20.807Z,12.00
2018-10-18T02:59:49.487Z,12.03
2018-10-18T03:02:19.784Z,11.96
2018-10-18T03:04:48.872Z,11.84
2018-10-18T03:07:17.253Z,11.75
2018-10-18T03:09:45.725Z,11.72
2018-10-18T03:12:14.223Z,11.79
2018-10-18T03:14:43.135Z,11.81
2018-10-18T03:17:11.704Z,11.83
2018-10-18T03:19:40.257Z,11.82
2018-10-18T03:22:08.969Z,11.77
2018-10-18T03:24:37.393Z,11.73
2018-10-18T03:27:06.176Z,11.75
2018-10-18T03:29:35.112Z,11.73
2018-10-18T03:32:03.614Z,11.72
2018-10-18T03:34:32.010Z,11.69
2018-10-18T03:37:00.544Z,11.65
2018-10-18T03:39:29.188Z,11.63
2018-10-18T03:41:58.622Z,11.68
2018-10-18T03:44:27.029Z,11.65
2018-10-18T03:46:55.460Z,11.60
2018-10-18T03:49:24.223Z,11.61
2018-10-18T03:51:52.639Z,11.65
2018-10-18T03:54:21.091Z,11.73
2018-10-18T03:56:49.457Z,11.72
2018-10-18T03:59:17.934Z,11.75
2018-10-18T04:01:46.303Z,11.57
2018-10-18T04:04:15.518Z,11.53
2018-10-18T04:06:44.507Z,11.54
2018-10-18T04:09:13.199Z,11.54
2018-10-18T04:11:43.378Z,11.50
2018-10-18T04:14:11.753Z,11.48
2018-10-18T04:16:40.307Z,11.43
2018-10-18T04:19:09.109Z,11.37
2018-10-18T04:21:37.902Z,11.36
2018-10-18T04:24:06.368Z,11.42
2018-10-18T04:26:35.505Z,11.45
2018-10-18T04:29:04.932Z,11.37
2018-10-18T04:31:33.438Z,11.37
2018-10-18T04:34:02.007Z,11.35
2018-10-18T04:36:30.802Z,11.37
2018-10-18T04:39:00.035Z,11.45
2018-10-18T04:41:29.370Z,11.60
2018-10-18T04:43:58.815Z,11.56
2018-10-18T04:46:27.493Z,11.54
2018-10-18T04:48:56.198Z,11.50
2018-10-18T04:51:24.586Z,11.35
2018-10-18T04:53:53.180Z,11.35
2018-10-18T04:56:21.750Z,11.35
2018-10-18T04:58:50.865Z,11.32
2018-10-18T05:01:19.383Z,11.29
2018-10-18T05:03:48.388Z,11.27
2018-10-18T05:06:17.329Z,11.15
2018-10-18T05:08:45.970Z,11.15
2018-10-18T05:11:14.688Z,11.17
2018-10-18T05:13:45.316Z,11.21
2018-10-18T05:16:14.077Z,11.21
2018-10-18T05:18:42.833Z,11.18
2018-10-18T05:21:11.384Z,11.13
2018-10-18T05:23:39.955Z,11.12
2018-10-18T05:26:09.232Z,11.10
2018-10-18T05:28:37.674Z,11.08
2018-10-18T05:31:06.546Z,11.17
2018-10-18T05:33:36.202Z,11.13
2018-10-18T05:36:04.836Z,11.18
2018-10-18T05:38:33.710Z,11.15
2018-10-18T05:41:02.327Z,11.18
2018-10-18T05:43:30.881Z,11.20
2018-10-18T05:45:59.507Z,11.17
2018-10-18T05:48:27.985Z,11.11
2018-10-18T05:50:57.146Z,11.10
2018-10-18T05:53:25.687Z,11.16
2018-10-18T05:55:56.229Z,11.14
2018-10-18T05:58:25.589Z,11.15
2018-10-18T06:00:54.370Z,11.24
2018-10-18T06:03:23.961Z,11.27
2018-10-18T06:05:53.980Z,11.26
2018-10-18T06:08:23.619Z,11.29
2018-10-18T06:11:09.351Z,11.42
2018-10-18T06:13:38.096Z,11.39
2018-10-18T06:16:07.456Z,11.37
2018-10-18T06:18:36.342Z,11.37
2018-10-18T06:21:06.000Z,11.41
2018-10-18T06:23:35.627Z,11.52
2018-10-18T06:26:05.206Z,11.59
2018-10-18T06:28:34.550Z,11.73
2018-10-18T06:31:03.771Z,11.85
2018-10-18T06:33:32.570Z,11.90
2018-10-18T06:36:01.358Z,11.98
2018-10-18T06:38:31.317Z,12.01
2018-10-18T06:41:02.021Z,12.03
2018-10-18T06:43:36.371Z,12.08
2018-10-18T06:46:09.056Z,12.14
2018-10-18T06:48:38.760Z,12.20
2018-10-18T06:51:08.226Z,12.20
2018-10-18T06:53:37.412Z,12.13
2018-10-18T06:56:07.270Z,12.11
2018-10-18T06:58:36.576Z,12.09
2018-10-18T07:01:07.282Z,12.17
2018-10-18T07:03:37.236Z,12.36
2018-10-18T07:06:06.076Z,12.51
2018-10-18T07:08:35.895Z,12.45
2018-10-18T07:11:05.818Z,12.31
2018-10-18T07:13:34.832Z,12.30
2018-10-18T07:16:04.821Z,12.26
2018-10-18T07:18:34.934Z,12.36
2018-10-18T07:21:05.162Z,12.46
2018-10-18T07:23:34.748Z,12.47
2018-10-18T07:26:03.943Z,12.62
2018-10-18T07:28:33.823Z,12.69
2018-10-18T07:31:03.256Z,12.68
2018-10-18T07:33:33.144Z,12.79
2018-10-18T07:36:02.090Z,13.03
2018-10-18T07:38:33.255Z,13.08
2018-10-18T07:41:03.082Z,13.04
2018-10-18T07:43:33.794Z,13.06
2018-10-18T07:46:03.653Z,13.17
2018-10-18T07:48:33.244Z,13.13
2018-10-18T07:51:02.633Z,13.35
2018-10-18T07:53:32.520Z,13.47
2018-10-18T07:56:01.600Z,13.51
2018-10-18T07:58:31.119Z,13.87
2018-10-18T08:01:00.103Z,13.94
2018-10-18T08:03:29.092Z,13.89
2018-10-18T08:05:58.319Z,14.17
2018-10-18T08:08:27.648Z,14.34
2018-10-18T08:10:57.664Z,14.47
2018-10-18T08:13:27.033Z,14.50
2018-10-18T08:15:55.652Z,14.41
2018-10-18T08:18:25.142Z,14.50
2018-10-18T08:20:55.165Z,14.55
2018-10-18T08:23:23.672Z,14.59
2018-10-18T08:25:53.168Z,14.48
2018-10-18T08:28:22.683Z,14.33
2018-10-18T08:30:53.498Z,14.55
2018-10-18T08:33:23.712Z,14.62
2018-10-18T08:35:54.511Z,14.75
2018-10-18T08:38:23.803Z,14.67
2018-10-18T08:40:52.991Z,15.06
2018-10-18T08:43:23.742Z,15.29
2018-10-18T08:45:53.494Z,15.59
2018-10-18T08:48:22.102Z,15.92
2018-10-18T08:50:50.727Z,16.00
2018-10-18T08:53:20.611Z,16.05
2018-10-18T08:55:51.393Z,16.22
2018-10-18T08:58:21.548Z,16.20
2018-10-18T09:00:50.859Z,16.37
2018-10-18T09:03:19.820Z,16.51
2018-10-18T09:05:48.331Z,16.54
2018-10-18T09:08:18.396Z,16.96
2018-10-18T09:10:47.322Z,16.92
2018-10-18T09:13:16.558Z,16.94
2018-10-18T09:15:47.223Z,16.85
2018-10-18T09:18:16.444Z,16.92
2018-10-18T09:20:45.185Z,17.11
2018-10-18T09:23:15.371Z,17.15
2018-10-18T09:25:43.844Z,17.33
2018-10-18T09:28:13.115Z,17.58
2018-10-18T09:30:41.984Z,17.51
2018-10-18T09:33:10.721Z,17.25
2018-10-18T09:35:39.216Z,17.54
2018-10-18T09:38:07.865Z,17.83
2018-10-18T09:40:37.487Z,18.04
2018-10-18T09:43:06.940Z,18.03
2018-10-18T09:45:36.141Z,18.49
2018-10-18T09:48:05.988Z,18.46
2018-10-18T09:50:35.680Z,18.23
2018-10-18T09:53:04.813Z,18.15
2018-10-18T09:55:34.440Z,18.39
2018-10-18T09:58:02.988Z,18.53
2018-10-18T10:00:37.341Z,18.64
2018-10-18T10:03:11.566Z,18.48
2018-10-18T10:05:40.194Z,18.31
2018-10-18T10:08:09.716Z,18.60
2018-10-18T10:10:38.635Z,18.60
2018-10-18T10:13:08.721Z,19.06
2018-10-18T10:15:38.209Z,18.95
2018-10-18T10:18:07.064Z,19.17
2018-10-18T10:20:36.273Z,19.25
2018-10-18T10:23:05.910Z,19.03
2018-10-18T10:25:36.391Z,19.56
2018-10-18T10:28:05.342Z,19.67
2018-10-18T10:30:35.210Z,19.69
2018-10-18T10:33:04.152Z,19.92
2018-10-18T10:35:32.660Z,20.07
2018-10-18T10:38:01.185Z,20.41
2018-10-18T10:40:29.841Z,20.55
2018-10-18T10:42:58.801Z,20.42
2018-10-18T10:45:27.334Z,20.35
2018-10-18T10:47:56.551Z,20.48
2018-10-18T10:50:27.707Z,20.80
2018-10-18T10:55:36.590Z,21.11
2018-10-18T10:58:06.077Z,21.44
2018-10-18T11:01:22.987Z,21.31
2018-10-18T11:03:54.024Z,21.30
2018-10-18T11:06:23.270Z,21.35
2018-10-18T11:08:52.499Z,21.63
2018-10-18T11:11:21.876Z,21.89
2018-10-18T11:13:51.793Z,21.87
2018-10-18T11:16:20.927Z,21.80
2018-10-18T11:18:49.881Z,22.01
2018-10-18T11:21:18.675Z,21.86
2018-10-18T11:23:47.243Z,21.92
2018-10-18T11:26:15.956Z,22.29
2018-10-18T11:28:44.629Z,22.55
2018-10-18T11:31:13.811Z,22.42
2018-10-18T11:33:43.288Z,22.42
2018-10-18T11:36:12.245Z,22.36
2018-10-18T11:38:41.968Z,22.47
2018-10-18T11:41:11.122Z,22.17
2018-10-18T11:43:40.936Z,22.42
2018-10-18T11:46:09.742Z,22.48
2018-10-18T11:48:39.889Z,22.51
2018-10-18T11:51:08.680Z,22.69
2018-10-18T11:53:37.158Z,22.44
2018-10-18T11:56:05.798Z,22.79
2018-10-18T11:58:34.352Z,23.16
2018-10-18T12:01:03.157Z,22.80
2018-10-18T12:03:32.243Z,23.24
2018-10-18T12:06:01.387Z,23.36
2018-10-18T12:08:30.874Z,23.53
2018-10-18T12:11:00.213Z,23.42
2018-10-18T12:13:28.963Z,23.41
2018-10-18T12:15:58.127Z,23.39
2018-10-18T12:18:27.234Z,23.54
2018-10-18T12:20:56.421Z,23.79
2018-10-18T12:23:25.033Z,24.25
2018-10-18T12:25:54.859Z,24.44
2018-10-18T12:28:24.171Z,24.41
2018-10-18T12:30:53.340Z,24.66
2018-10-18T12:33:22.000Z,24.58
2018-10-18T12:35:51.902Z,24.46
2018-10-18T12:38:21.493Z,24.77
2018-10-18T12:40:51.292Z,24.50
2018-10-18T12:43:20.664Z,24.63
2018-10-18T12:45:49.984Z,24.79
2018-10-18T12:48:19.394Z,24.92
2018-10-18T12:50:47.704Z,24.54
2018-10-18T12:53:17.562Z,24.50
2018-10-18T12:55:47.371Z,24.70
2018-10-18T12:58:16.913Z,25.62
2018-10-18T13:00:45.471Z,26.75
2018-10-18T13:03:16.202Z,27.91
2018-10-18T13:05:44.983Z,28.80
2018-10-18T13:08:13.864Z,29.67
2018-10-18T13:10:43.577Z,30.25
2018-10-18T13:13:13.744Z,30.21
2018-10-18T13:15:42.569Z,31.64
2018-10-18T13:18:11.189Z,31.12
2018-10-18T13:20:40.759Z,31.28
2018-10-18T13:23:10.392Z,32.04
2018-10-18T13:25:39.074Z,33.09
2018-10-18T13:28:07.573Z,32.52
2018-10-18T13:30:37.460Z,32.32
2018-10-18T13:33:06.762Z,31.97
2018-10-18T13:35:37.074Z,32.72
2018-10-18T13:38:06.804Z,32.80
2018-10-18T13:40:37.349Z,32.04
2018-10-18T13:43:06.374Z,31.49
2018-10-18T13:45:34.992Z,31.37
2018-10-18T13:48:04.825Z,31.63
2018-10-18T13:50:34.865Z,31.23
2018-10-18T13:53:04.240Z,31.46
2018-10-18T13:55:33.637Z,31.42
2018-10-18T13:58:03.249Z,31.30
2018-10-18T14:00:32.101Z,30.86
2018-10-18T14:03:03.758Z,30.51
2018-10-18T14:05:32.493Z,30.63
2018-10-18T14:08:01.635Z,29.79
2018-10-18T14:10:30.420Z,30.00
2018-10-18T14:12:59.994Z,29.93
2018-10-18T14:15:30.399Z,30.79
2018-10-18T14:18:01.156Z,30.00
2018-10-18T14:20:32.023Z,30.59
2018-10-18T14:23:01.729Z,31.02
2018-10-18T14:25:31.531Z,30.40
2018-10-18T14:28:01.921Z,29.85
2018-10-18T14:30:31.078Z,29.98
2018-10-18T14:32:59.653Z,29.99
2018-10-18T14:35:28.261Z,30.40
2018-10-18T14:37:58.218Z,30.59
2018-10-18T14:40:28.255Z,30.45
2018-10-18T14:42:57.281Z,30.06
2018-10-18T14:45:26.006Z,29.24
2018-10-18T14:47:55.282Z,29.08
2018-10-18T14:50:25.145Z,29.13
2018-10-18T14:52:55.604Z,29.72
2018-10-18T14:55:25.940Z,29.62
2018-10-18T14:57:55.709Z,28.31
2018-10-18T15:00:24.397Z,28.41
2018-10-18T15:02:52.895Z,28.56
2018-10-18T15:05:22.412Z,27.88
2018-10-18T15:07:51.523Z,27.61
2018-10-18T15:10:21.869Z,26.98
2018-10-18T15:12:51.113Z,26.92
2018-10-18T15:15:19.869Z,27.26
2018-10-18T15:17:49.382Z,27.31
2018-10-18T15:20:18.323Z,27.02
2018-10-18T15:22:46.877Z,27.08
2018-10-18T15:25:16.045Z,26.99
2018-10-18T15:27:44.821Z,26.36
2018-10-18T15:30:15.168Z,26.19
2018-10-18T15:32:43.838Z,25.52
2018-10-18T15:35:12.975Z,25.13
2018-10-18T15:37:42.330Z,25.21
2018-10-18T15:40:10.869Z,24.57
2018-10-18T15:42:40.564Z,23.72
2018-10-18T15:45:10.348Z,22.88
2018-10-18T15:47:39.303Z,22.54
2018-10-18T15:50:09.553Z,22.25
2018-10-18T15:52:38.085Z,21.89
2018-10-18T15:55:07.938Z,21.88
2018-10-18T15:57:37.205Z,21.62
2018-10-18T16:00:09.828Z,21.52
2018-10-18T16:02:38.453Z,21.36
2018-10-18T16:05:09.947Z,21.05
2018-10-18T16:07:39.028Z,20.83
2018-10-18T16:10:09.891Z,20.73
2018-10-18T16:12:39.572Z,20.42
2018-10-18T16:15:10.397Z,20.26
2018-10-18T16:17:39.970Z,20.18
2018-10-18T16:20:10.221Z,20.08
2018-10-18T16:22:42.148Z,19.96
2018-10-18T16:25:11.514Z,19.83
2018-10-18T16:27:41.667Z,19.73
2018-10-18T16:30:11.541Z,19.62
2018-10-18T16:32:41.214Z,19.46
2018-10-18T16:35:09.767Z,19.43
2018-10-18T16:37:39.533Z,19.35
2018-10-18T16:40:09.289Z,19.26
2018-10-18T16:42:38.817Z,19.13
2018-10-18T16:45:10.986Z,19.18
2018-10-18T16:47:41.174Z,19.05
2018-10-18T16:50:11.269Z,19.04
2018-10-18T16:52:41.109Z,19.01
2018-10-18T16:55:11.445Z,18.92
2018-10-18T16:57:40.501Z,18.83
2018-10-18T17:00:10.332Z,18.82
2018-10-18T17:02:41.146Z,18.77
2018-10-18T17:05:10.769Z,18.76
2018-10-18T17:07:40.339Z,18.73
2018-10-18T17:10:09.507Z,18.71
2018-10-18T17:12:39.096Z,18.59
2018-10-18T17:15:08.796Z,18.45
2018-10-18T17:17:38.452Z,18.45
2018-10-18T17:20:07.507Z,18.38
2018-10-18T17:22:37.247Z,18.36
2018-10-18T17:25:07.077Z,18.21
2018-10-18T17:27:35.866Z,18.11
2018-10-18T17:30:05.384Z,18.15
2018-10-18T17:32:35.135Z,18.04
2018-10-18T17:35:04.688Z,17.93
2018-10-18T17:37:34.831Z,17.89
2018-10-18T17:40:04.658Z,17.77
2018-10-18T17:42:33.121Z,17.71
2018-10-18T17:45:02.373Z,17.61
2018-10-18T17:47:31.677Z,17.63
2018-10-18T17:50:00.226Z,17.53
2018-10-18T17:52:30.124Z,17.38
2018-10-18T17:54:59.259Z,17.31
2018-10-18T17:57:29.275Z,17.21
2018-10-18T17:59:58.947Z,17.13
2018-10-18T18:02:29.958Z,17.10
2018-10-18T18:04:59.200Z,17.08
2018-10-18T18:07:28.140Z,17.02
2018-10-18T18:09:57.425Z,16.97
2018-10-18T18:12:28.510Z,16.96
2018-10-18T18:14:57.302Z,17.03
2018-10-18T18:17:26.976Z,16.96
2018-10-18T18:19:56.538Z,16.86
2018-10-18T18:22:25.527Z,16.80
2018-10-18T18:24:55.452Z,16.66
2018-10-18T18:27:23.923Z,16.60
2018-10-18T18:29:52.282Z,16.62
2018-10-18T18:32:20.706Z,16.52
2018-10-18T18:34:49.181Z,16.51
2018-10-18T18:37:17.544Z,16.41
2018-10-18T18:39:45.968Z,16.31
2018-10-18T18:42:15.033Z,16.21
2018-10-18T18:44:43.442Z,16.12
2018-10-18T18:47:11.796Z,16.08
2018-10-18T18:49:40.569Z,16.00
2018-10-18T18:52:08.949Z,15.96
2018-10-18T18:54:38.143Z,15.98
2018-10-18T18:57:07.153Z,16.00
2018-10-18T18:59:37.203Z,16.00
2018-10-18T19:02:06.602Z,15.98
2018-10-18T19:04:35.143Z,16.00
2018-10-18T19:07:03.611Z,15.94
2018-10-18T19:09:32.766Z,15.99
2018-10-18T19:12:01.840Z,15.96
2018-10-18T19:14:30.684Z,15.90
2018-10-18T19:16:59.811Z,15.82
2018-10-18T19:19:28.748Z,15.85
2018-10-18T19:21:57.228Z,15.97
2018-10-18T19:24:26.018Z,16.01
2018-10-18T19:26:56.023Z,15.97
2018-10-18T19:29:24.505Z,16.03
2018-10-18T19:31:53.372Z,16.01
2018-10-18T19:34:22.054Z,15.97
2018-10-18T19:36:50.372Z,16.01
2018-10-18T19:39:18.896Z,15.96
2018-10-18T19:41:47.261Z,15.95
2018-10-18T19:44:15.829Z,15.88
2018-10-18T19:46:44.490Z,15.81
2018-10-18T19:49:13.059Z,15.80
2018-10-18T19:51:41.453Z,15.76
2018-10-18T19:54:10.453Z,15.77
2018-10-18T19:56:39.446Z,15.70
2018-10-18T19:59:07.675Z,15.84
2018-10-18T20:01:36.143Z,15.78
2018-10-18T20:04:04.747Z,15.78
2018-10-18T20:06:33.084Z,15.69
2018-10-18T20:09:01.432Z,15.69
2018-10-18T20:11:29.804Z,15.81
2018-10-18T20:13:59.471Z,15.61
2018-10-18T20:16:27.957Z,15.58
2018-10-18T20:18:57.095Z,15.58
2018-10-18T20:21:25.481Z,15.52
2018-10-18T20:23:53.901Z,15.52
2018-10-18T20:26:22.457Z,15.50
2018-10-18T20:28:50.783Z,15.49
2018-10-18T20:31:19.449Z,15.40
2018-10-18T20:33:48.594Z,15.39
2018-10-18T20:36:17.367Z,15.31
2018-10-18T20:38:46.196Z,15.28
2018-10-18T20:41:15.364Z,15.26
2018-10-18T20:43:43.694Z,15.32
2018-10-18T20:46:13.099Z,15.32
2018-10-18T20:48:41.488Z,15.32
2018-10-18T20:51:09.939Z,15.28
2018-10-18T20:53:38.584Z,15.27
2018-10-18T20:56:06.960Z,15.19
2018-10-18T20:58:36.505Z,15.31
2018-10-18T21:01:06.526Z,15.24
2018-10-18T21:03:34.969Z,15.18
2018-10-18T21:06:03.745Z,15.14
2018-10-18T21:08:32.560Z,15.14
2018-10-18T21:11:01.082Z,15.15
2018-10-18T21:13:29.585Z,15.18
2018-10-18T21:15:58.135Z,15.06
2018-10-18T21:18:26.567Z,15.03
2018-10-18T21:20:54.991Z,14.96
2018-10-18T21:23:23.371Z,14.91
2018-10-18T21:25:52.707Z,14.87
2018-10-18T21:28:21.728Z,14.91
2018-10-18T21:30:50.322Z,14.88
2018-10-18T21:33:18.832Z,14.86
2018-10-18T21:35:47.967Z,14.83
2018-10-18T21:38:16.430Z,14.84
2018-10-18T21:40:45.091Z,14.73
2018-10-18T21:43:13.436Z,14.64
2018-10-18T21:45:48.880Z,14.60
2018-10-18T21:48:18.021Z,14.57
2018-10-18T21:50:47.725Z,14.52
2018-10-18T21:53:16.466Z,14.53
2018-10-18T21:55:44.862Z,14.51
2018-10-18T21:58:13.245Z,14.40
2018-10-18T22:00:44.268Z,14.41
2018-10-18T22:03:13.414Z,14.37
2018-10-18T22:05:43.116Z,14.38
2018-10-18T22:08:11.526Z,14.34
2018-10-18T22:10:40.903Z,14.38
2018-10-18T22:13:10.094Z,14.31
2018-10-18T22:15:38.546Z,14.35
2018-10-18T22:18:07.710Z,14.29
2018-10-18T22:20:36.457Z,14.28
2018-10-18T22:23:05.480Z,14.27
2018-10-18T22:25:34.251Z,14.19
2018-10-18T22:28:02.883Z,14.18
2018-10-18T22:30:31.245Z,14.22
2018-10-18T22:32:59.619Z,14.22
2018-10-18T22:35:27.958Z,14.13
2018-10-18T22:37:57.285Z,14.06
2018-10-18T22:40:25.797Z,13.95
2018-10-18T22:42:54.264Z,13.89
2018-10-18T22:45:23.631Z,13.83
2018-10-18T22:47:51.882Z,13.83
2018-10-18T22:50:20.752Z,13.79
2018-10-18T22:52:49.083Z,13.73
2018-10-18T22:55:18.844Z,13.66
2018-10-18T22:57:47.161Z,13.62
2018-10-18T23:00:15.872Z,13.58
2018-10-18T23:02:44.526Z,13.51
2018-10-18T23:05:13.805Z,13.49
2018-10-18T23:07:42.222Z,13.57
2018-10-18T23:10:10.887Z,13.51
2018-10-18T23:12:39.514Z,13.47
2018-10-18T23:15:09.521Z,13.51
2018-10-18T23:17:38.197Z,13.46
2018-10-18T23:20:08.312Z,13.37
2018-10-18T23:22:37.105Z,13.35
2018-10-18T23:25:06.520Z,13.34
2018-10-18T23:27:34.917Z,13.31
2018-10-18T23:30:04.795Z,13.29
2018-10-18T23:32:33.584Z,13.40
2018-10-18T23:35:02.727Z,13.25
2018-10-18T23:37:31.345Z,13.20
2018-10-18T23:40:00.413Z,13.17
2018-10-18T23:42:28.684Z,13.16
2018-10-18T23:44:57.416Z,13.11
2018-10-18T23:47:25.754Z,13.22
2018-10-18T23:49:54.204Z,13.21
2018-10-18T23:52:22.985Z,13.18
2018-10-18T23:54:52.571Z,13.16
2018-10-18T23:57:23.493Z,13.23
2018-10-18T23:59:52.121Z,13.16
